Time;durP1;ratioP1;P1;durP2;ratioP2;P2;SDS_P1;SDS_P2;PMS_P1;PMS_P2;Temp;Humidity;BMP_temperature;BMP_pressure;BME280_temperature;BME280_humidity;BME280_pressure;Samples;Min_cycle;Max_cycle;Signal;HPM_P1;HPM_P2
2021/10/11 00:02:24;;;;;;;7.30;6.07;;;;;;;6.25;100.00;101649.28;4958294;28;20222;-71
2021/10/11 00:04:52;;;;;;;7.07;5.60;;;;;;;6.31;100.00;101659.19;4961400;28;20193;-72
2021/10/11 00:07:17;;;;;;;8.43;6.37;;;;;;;6.51;100.00;101653.38;4941752;28;20698;-71
2021/10/11 00:09:45;;;;;;;8.40;5.90;;;;;;;6.41;100.00;101654.94;4964681;28;20177;-72
2021/10/11 00:12:11;;;;;;;6.70;5.43;;;;;;;6.51;100.00;101654.44;4976492;28;20222;-71
2021/10/11 00:14:38;;;;;;;7.17;5.93;;;;;;;6.44;100.00;101659.06;4972785;28;20226;-71
2021/10/11 00:17:04;;;;;;;7.43;5.90;;;;;;;6.51;100.00;101645.28;4957429;28;20233;-72
2021/10/11 00:19:35;;;;;;;8.57;6.03;;;;;;;6.66;100.00;101643.06;4945176;28;20185;-72
2021/10/11 00:22:01;;;;;;;6.80;6.07;;;;;;;6.82;100.00;101642.50;4976659;28;20217;-72
2021/10/11 00:24:29;;;;;;;8.17;5.47;;;;;;;6.84;100.00;101634.19;4974531;28;20200;-73
2021/10/11 00:26:57;;;;;;;6.90;6.10;;;;;;;6.76;100.00;101632.59;4957093;28;20222;-73
2021/10/11 00:29:26;;;;;;;10.47;7.37;;;;;;;6.96;100.00;101634.03;4955832;28;20270;-71
2021/10/11 00:31:53;;;;;;;11.03;7.37;;;;;;;6.90;100.00;101624.13;4976183;28;20222;-71
2021/10/11 00:34:21;;;;;;;10.87;8.27;;;;;;;7.01;100.00;101633.34;4969398;28;20214;-72
2021/10/11 00:36:49;;;;;;;10.20;8.37;;;;;;;7.21;100.00;101636.63;4950969;28;20700;-72
2021/10/11 00:39:15;;;;;;;10.80;8.70;;;;;;;7.22;100.00;101627.50;4957112;28;20209;-71
2021/10/11 00:41:45;;;;;;;11.53;9.40;;;;;;;7.23;100.00;101618.31;4990987;28;20234;-71
2021/10/11 00:44:13;;;;;;;12.77;9.17;;;;;;;7.28;100.00;101621.19;4993642;28;20679;-72
2021/10/11 00:46:38;;;;;;;14.20;10.13;;;;;;;7.32;100.00;101617.78;4974427;28;20222;-73
2021/10/11 00:49:06;;;;;;;12.90;10.93;;;;;;;7.35;100.00;101611.94;4973343;28;20677;-73
2021/10/11 00:51:32;;;;;;;13.50;11.07;;;;;;;7.35;100.00;101612.75;4989168;28;20324;-73
2021/10/11 00:53:58;;;;;;;12.47;10.80;;;;;;;7.39;100.00;101608.53;4977656;28;20717;-72
2021/10/11 00:56:26;;;;;;;12.67;10.47;;;;;;;7.40;100.00;101610.19;4947029;28;20811;-72
2021/10/11 00:58:54;;;;;;;15.93;11.77;;;;;;;7.50;100.00;101620.47;4957118;28;20537;-72
2021/10/11 01:01:22;;;;;;;15.00;12.00;;;;;;;7.52;100.00;101619.16;4953189;28;20221;-72
2021/10/11 01:03:52;;;;;;;14.50;11.77;;;;;;;7.53;100.00;101615.41;4972690;28;20599;-73
2021/10/11 01:06:20;;;;;;;14.73;11.40;;;;;;;7.53;100.00;101604.59;4956048;28;20222;-72
2021/10/11 01:08:46;;;;;;;12.63;11.13;;;;;;;7.62;100.00;101608.63;4972989;28;20189;-73
2021/10/11 01:11:11;;;;;;;15.30;12.10;;;;;;;7.75;100.00;101605.75;4949026;28;20221;-72
2021/10/11 01:13:37;;;;;;;13.73;11.60;;;;;;;7.91;100.00;101608.63;4973987;28;20217;-71
2021/10/11 01:16:02;;;;;;;14.47;11.90;;;;;;;8.01;100.00;101608.03;4971884;28;20226;-71
2021/10/11 01:18:33;;;;;;;13.60;12.07;;;;;;;7.98;100.00;101603.09;4957026;28;20194;-73
2021/10/11 01:20:58;;;;;;;16.90;12.83;;;;;;;7.92;100.00;101602.13;4979520;28;20304;-72
2021/10/11 01:23:28;;;;;;;15.23;13.10;;;;;;;7.88;100.00;101592.03;4943764;28;20234;-73
2021/10/11 01:25:59;;;;;;;15.97;13.63;;;;;;;8.20;100.00;101597.72;4990423;28;20222;-73
2021/10/11 01:28:29;;;;;;;17.23;14.10;;;;;;;8.25;100.00;101591.63;4962661;28;20640;-72
2021/10/11 01:30:58;;;;;;;18.40;13.47;;;;;;;8.08;100.00;101583.34;4966414;28;20232;-72
2021/10/11 01:33:25;;;;;;;15.87;13.17;;;;;;;8.16;100.00;101584.91;4962730;28;20241;-72
2021/10/11 01:35:51;;;;;;;18.07;14.20;;;;;;;8.20;100.00;101586.91;4963386;28;20228;-72
2021/10/11 01:38:16;;;;;;;16.90;14.07;;;;;;;8.16;100.00;101585.72;4978639;28;20186;-73
2021/10/11 01:40:42;;;;;;;19.50;14.23;;;;;;;8.24;100.00;101592.69;4961138;28;20261;-72
2021/10/11 01:43:12;;;;;;;19.43;15.63;;;;;;;8.38;100.00;101586.81;4976214;28;20200;-72
2021/10/11 01:45:38;;;;;;;17.87;14.23;;;;;;;8.26;100.00;101586.00;4990054;28;20229;-72
2021/10/11 01:48:06;;;;;;;18.03;14.53;;;;;;;8.27;100.00;101579.50;4955927;28;20229;-72
2021/10/11 01:50:32;;;;;;;19.03;15.07;;;;;;;8.31;100.00;101579.84;4955688;28;20641;-72
2021/10/11 01:52:58;;;;;;;21.43;16.00;;;;;;;8.32;100.00;101579.63;4974635;28;20237;-71
2021/10/11 01:55:26;;;;;;;18.77;15.73;;;;;;;8.51;100.00;101575.75;4990842;28;20221;-72
2021/10/11 01:57:51;;;;;;;18.83;15.97;;;;;;;8.47;100.00;101569.16;4955508;28;20195;-71
2021/10/11 02:00:17;;;;;;;19.87;16.10;;;;;;;8.54;100.00;101564.44;4955667;28;20217;-72
2021/10/11 02:02:44;;;;;;;21.90;16.70;;;;;;;8.50;100.00;101563.28;4956861;28;20208;-72
2021/10/11 02:05:12;;;;;;;19.93;16.47;;;;;;;8.48;100.00;101559.97;4945163;28;20212;-72
2021/10/11 02:07:37;;;;;;;19.57;16.53;;;;;;;8.45;100.00;101563.16;4958271;28;20641;-71
2021/10/11 02:10:04;;;;;;;20.73;17.17;;;;;;;8.55;100.00;101555.25;4972047;28;20174;-72
2021/10/11 02:12:29;;;;;;;22.03;18.03;;;;;;;8.55;100.00;101557.94;4967510;28;20221;-72
2021/10/11 02:14:58;;;;;;;22.20;17.43;;;;;;;8.51;100.00;101556.78;4974562;28;20572;-71
2021/10/11 02:17:23;;;;;;;21.93;18.33;;;;;;;8.48;100.00;101554.56;4947032;28;20218;-71
2021/10/11 02:19:51;;;;;;;25.60;18.07;;;;;;;8.69;100.00;101546.63;4956250;28;20178;-72
2021/10/11 02:22:22;;;;;;;24.20;18.73;;;;;;;8.69;100.00;101543.13;4978028;28;20217;-72
2021/10/11 02:24:47;;;;;;;25.00;19.17;;;;;;;8.77;100.00;101556.28;4990863;28;20182;-72
2021/10/11 02:27:13;;;;;;;23.40;18.53;;;;;;;8.73;100.00;101549.69;4965386;28;20605;-72
2021/10/11 02:29:38;;;;;;;25.27;18.97;;;;;;;8.73;100.00;101555.09;4955692;28;20205;-72
2021/10/11 02:32:04;;;;;;;24.53;18.37;;;;;;;8.70;100.00;101553.72;4961011;28;20213;-72
2021/10/11 02:34:32;;;;;;;24.63;19.50;;;;;;;8.77;100.00;101559.81;4965709;28;20202;-73
2021/10/11 02:36:57;;;;;;;27.20;20.13;;;;;;;8.85;100.00;101560.25;4970203;28;20222;-71
2021/10/11 02:39:25;;;;;;;25.67;20.83;;;;;;;8.87;100.00;101552.72;4955227;28;20193;-72
2021/10/11 02:41:50;;;;;;;24.67;20.50;;;;;;;8.96;100.00;101540.44;4975557;28;20252;-72
2021/10/11 02:44:18;;;;;;;23.13;19.83;;;;;;;9.04;100.00;101550.91;4990662;28;20284;-73
2021/10/11 02:46:46;;;;;;;25.20;20.13;;;;;;;8.96;100.00;101556.72;4971909;28;20287;-71
2021/10/11 02:49:11;;;;;;;28.33;21.40;;;;;;;8.87;100.00;101560.84;4954821;28;20202;-72
2021/10/11 02:51:37;;;;;;;26.60;20.63;;;;;;;9.05;100.00;101560.69;4954818;28;20272;-71
2021/10/11 02:54:09;;;;;;;28.03;21.10;;;;;;;9.22;100.00;101551.53;4990202;28;20214;-72
2021/10/11 02:56:43;;;;;;;27.20;20.80;;;;;;;9.26;100.00;101551.88;4989639;28;20719;-72
2021/10/11 02:59:11;;;;;;;25.70;21.27;;;;;;;9.15;100.00;101544.63;4952093;29;20195;-73
2021/10/11 03:01:39;;;;;;;28.50;21.53;;;;;;;9.04;100.00;101544.66;4935797;28;20218;-73
2021/10/11 03:04:06;;;;;;;29.20;21.63;;;;;;;9.20;100.00;101552.06;4968118;28;20692;-72
2021/10/11 03:06:34;;;;;;;27.50;22.43;;;;;;;9.36;100.00;101541.25;4970003;28;20654;-73
2021/10/11 03:09:02;;;;;;;28.43;22.13;;;;;;;9.15;100.00;101547.34;4952805;28;20656;-73
2021/10/11 03:11:32;;;;;;;27.83;21.47;;;;;;;9.08;100.00;101538.50;4970515;28;20226;-74
2021/10/11 03:14:00;;;;;;;25.73;20.97;;;;;;;9.26;100.00;101539.16;4950060;28;20218;-73
2021/10/11 03:16:28;;;;;;;27.20;21.13;;;;;;;9.40;100.00;101532.38;4937726;28;20273;-74
2021/10/11 03:18:56;;;;;;;26.50;21.37;;;;;;;9.45;100.00;101534.34;4942280;28;20190;-73
2021/10/11 03:21:26;;;;;;;29.57;21.50;;;;;;;9.59;100.00;101531.91;4973279;28;20222;-72
2021/10/11 03:23:54;;;;;;;31.20;22.93;;;;;;;9.53;100.00;101525.84;4952237;28;20202;-72
2021/10/11 03:26:20;;;;;;;26.00;20.60;;;;;;;9.53;100.00;101528.56;4953671;28;20228;-72
2021/10/11 03:28:48;;;;;;;27.27;21.80;;;;;;;9.62;100.00;101526.00;4954161;28;20187;-72
2021/10/11 03:31:15;;;;;;;25.53;20.93;;;;;;;9.67;100.00;101523.38;4958093;28;20233;-72
2021/10/11 03:33:46;;;;;;;24.90;19.97;;;;;;;9.46;100.00;101525.16;4958797;28;20222;-72
2021/10/11 03:36:14;;;;;;;24.70;19.87;;;;;;;9.51;100.00;101517.13;4957406;28;20222;-72
2021/10/11 03:38:39;;;;;;;22.37;19.57;;;;;;;9.54;100.00;101517.47;4974399;28;20186;-72
2021/10/11 03:41:08;;;;;;;25.10;20.33;;;;;;;9.59;100.00;101512.91;4975322;28;20218;-72
2021/10/11 03:43:33;;;;;;;24.17;19.63;;;;;;;9.54;100.00;101517.47;4981698;28;20248;-72
2021/10/11 03:45:59;;;;;;;24.23;19.40;;;;;;;9.57;100.00;101514.25;4971315;28;20802;-71
2021/10/11 03:48:25;;;;;;;25.07;20.23;;;;;;;9.57;100.00;101516.16;4967575;28;20219;-71
2021/10/11 03:50:53;;;;;;;25.70;20.10;;;;;;;9.66;100.00;101513.59;4973439;28;20230;-72
2021/10/11 03:53:20;;;;;;;24.40;20.10;;;;;;;9.66;100.00;101515.50;4954301;28;20650;-71
2021/10/11 03:55:46;;;;;;;27.80;22.40;;;;;;;9.78;100.00;101519.78;4957570;28;20226;-71
2021/10/11 03:58:12;;;;;;;30.43;22.83;;;;;;;9.88;100.00;101519.94;4971168;28;20257;-71
2021/10/11 04:00:39;;;;;;;30.13;23.83;;;;;;;9.79;100.00;101521.41;4956924;28;20218;-70
2021/10/11 04:03:09;;;;;;;29.10;22.53;;;;;;;9.88;100.00;101525.38;4945292;28;20300;-72
2021/10/11 04:05:37;;;;;;;29.03;21.90;;;;;;;9.93;100.00;101520.06;4974691;28;20218;-72
2021/10/11 04:08:13;;;;;;;27.97;22.63;;;;;;;9.91;100.00;101524.91;4974387;28;20194;-72
2021/10/11 04:11:02;;;;;;;30.80;22.67;;;;;;;10.04;100.00;101521.88;4927529;28;20222;-72
2021/10/11 04:13:28;;;;;;;29.13;22.00;;;;;;;9.93;100.00;101521.97;4946086;28;20206;-72
2021/10/11 04:15:53;;;;;;;33.17;23.00;;;;;;;9.88;100.00;101521.84;4978308;28;20276;-74
2021/10/11 04:18:19;;;;;;;27.03;21.77;;;;;;;10.03;100.00;101522.94;4967775;28;20209;-70
2021/10/11 04:20:47;;;;;;;27.93;22.17;;;;;;;10.11;100.00;101514.38;4973142;28;20229;-72
2021/10/11 04:23:15;;;;;;;33.43;21.73;;;;;;;10.18;100.00;101513.16;4973977;28;20206;-71
2021/10/11 04:25:43;;;;;;;25.23;21.47;;;;;;;10.10;100.00;101526.31;4955716;28;20294;-70
2021/10/11 04:28:12;;;;;;;26.40;20.17;;;;;;;10.04;100.00;101528.13;4954679;29;20270;-71
2021/10/11 04:30:38;;;;;;;29.60;21.07;;;;;;;10.05;100.00;101520.78;4954840;28;20246;-72
2021/10/11 04:33:04;;;;;;;29.40;21.70;;;;;;;9.97;100.00;101528.53;4961054;28;20214;-73
2021/10/11 04:35:31;;;;;;;34.03;21.30;;;;;;;9.98;100.00;101527.44;4939823;28;20218;-72
2021/10/11 04:37:57;;;;;;;36.70;24.53;;;;;;;9.91;100.00;101519.50;4956574;28;20186;-72
2021/10/11 04:40:24;;;;;;;35.97;24.43;;;;;;;10.06;100.00;101522.44;4940208;28;20186;-74
2021/10/11 04:42:50;;;;;;;43.83;26.60;;;;;;;10.06;100.00;101528.69;4941433;28;20245;-72
2021/10/11 04:45:18;;;;;;;38.90;26.57;;;;;;;10.11;100.00;101525.25;4982971;28;20237;-72
2021/10/11 04:47:46;;;;;;;42.63;26.33;;;;;;;10.15;100.00;101532.63;4963228;28;20190;-72
2021/10/11 04:50:11;;;;;;;44.10;27.63;;;;;;;10.23;100.00;101520.53;4948730;28;20222;-72
2021/10/11 04:52:40;;;;;;;42.27;29.07;;;;;;;10.11;100.00;101523.34;4972387;28;20313;-72
2021/10/11 04:55:10;;;;;;;46.17;30.77;;;;;;;10.21;100.00;101525.38;4967698;28;20265;-72
2021/10/11 04:57:36;;;;;;;51.23;32.83;;;;;;;10.11;100.00;101519.81;4933246;28;20174;-73
2021/10/11 05:00:01;;;;;;;61.30;36.77;;;;;;;10.34;100.00;101519.63;4961120;28;20183;-71
2021/10/11 05:02:29;;;;;;;57.50;35.30;;;;;;;10.35;100.00;101511.22;4953249;28;20235;-72
2021/10/11 05:04:55;;;;;;;64.60;35.83;;;;;;;10.38;100.00;101521.56;4968383;28;20186;-71
2021/10/11 05:07:23;;;;;;;79.60;39.33;;;;;;;10.53;100.00;101521.78;4973137;28;20240;-70
2021/10/11 05:09:48;;;;;;;64.00;37.70;;;;;;;10.50;100.00;101514.97;4972661;28;20622;-71
2021/10/11 05:12:18;;;;;;;81.47;41.70;;;;;;;10.64;100.00;101526.28;4940312;28;20222;-73
2021/10/11 05:14:46;;;;;;;78.07;40.73;;;;;;;10.72;100.00;101523.97;4954215;28;20683;-72
2021/10/11 05:17:12;;;;;;;84.97;41.43;;;;;;;10.80;100.00;101534.38;4974714;28;20210;-71
2021/10/11 05:19:38;;;;;;;85.30;42.63;;;;;;;10.74;100.00;101535.41;4956568;28;20186;-70
2021/10/11 05:22:03;;;;;;;100.33;43.13;;;;;;;10.60;100.00;101544.97;4950826;28;20227;-76
2021/10/11 05:24:30;;;;;;;68.60;40.07;;;;;;;10.76;100.00;101541.41;4941039;28;20184;-70
2021/10/11 05:26:58;;;;;;;85.40;41.80;;;;;;;10.74;100.00;101544.38;4937642;28;20597;-73
2021/10/11 05:29:26;;;;;;;101.40;43.03;;;;;;;10.71;100.00;101538.59;4971410;28;20191;-73
2021/10/11 05:31:51;;;;;;;76.20;42.27;;;;;;;10.82;100.00;101541.22;4944469;28;20218;-74
2021/10/11 05:34:20;;;;;;;76.70;40.70;;;;;;;10.85;100.00;101539.91;4938346;28;20221;-73
2021/10/11 05:36:46;;;;;;;74.10;41.60;;;;;;;10.93;100.00;101542.16;4962492;28;20218;-71
2021/10/11 05:39:14;;;;;;;74.20;40.83;;;;;;;10.98;100.00;101544.94;4954915;28;20198;-71
2021/10/11 05:41:39;;;;;;;76.87;41.53;;;;;;;11.08;100.00;101553.22;4971057;28;20214;-71
2021/10/11 05:44:10;;;;;;;72.33;40.33;;;;;;;11.13;100.00;101560.38;4968724;28;20214;-71
2021/10/11 05:46:39;;;;;;;66.20;39.13;;;;;;;11.12;100.00;101557.06;4967333;28;20234;-71
2021/10/11 05:49:05;;;;;;;76.43;41.33;;;;;;;11.32;100.00;101553.53;4971831;28;20202;-71
2021/10/11 05:51:33;;;;;;;58.90;36.10;;;;;;;11.13;100.00;101547.84;4971811;28;20233;-71
2021/10/11 05:53:59;;;;;;;64.13;38.07;;;;;;;11.30;100.00;101555.69;4965808;28;20652;-71
2021/10/11 05:56:24;;;;;;;47.90;30.60;;;;;;;11.13;100.00;101548.66;4985669;28;20236;-71
2021/10/11 05:58:54;;;;;;;51.47;31.77;;;;;;;11.20;100.00;101550.13;4959106;28;20271;-71
2021/10/11 06:01:20;;;;;;;53.73;32.27;;;;;;;11.27;100.00;101556.19;4961861;28;20309;-71
2021/10/11 06:03:45;;;;;;;50.17;29.73;;;;;;;11.25;100.00;101547.47;4955819;28;20201;-70
2021/10/11 06:06:11;;;;;;;51.57;32.27;;;;;;;11.21;100.00;101546.34;4957943;28;20707;-71
2021/10/11 06:08:39;;;;;;;44.33;29.27;;;;;;;11.20;100.00;101533.78;4924974;28;20182;-72
2021/10/11 06:11:14;;;;;;;50.60;30.90;;;;;;;11.22;100.00;101547.97;4966427;28;20241;-72
2021/10/11 06:13:40;;;;;;;49.10;31.13;;;;;;;11.24;100.00;101548.53;4957631;28;20300;-72
2021/10/11 06:16:05;;;;;;;53.67;31.30;;;;;;;11.21;100.00;101540.88;4939335;28;20720;-73
2021/10/11 06:18:37;;;;;;;46.93;30.03;;;;;;;11.09;100.00;101536.66;4921692;29;20234;-71
2021/10/11 06:21:08;;;;;;;48.97;30.07;;;;;;;11.32;100.00;101531.78;4939269;28;20643;-72
2021/10/11 06:23:38;;;;;;;46.13;30.70;;;;;;;11.26;100.00;101538.25;4969260;28;20206;-71
2021/10/11 06:26:04;;;;;;;48.00;30.97;;;;;;;11.18;100.00;101530.50;4943303;28;20234;-73
2021/10/11 06:28:29;;;;;;;47.77;29.97;;;;;;;11.23;100.00;101530.59;4987120;28;20190;-70
2021/10/11 06:30:57;;;;;;;49.27;30.47;;;;;;;11.35;100.00;101535.88;4990143;28;20225;-72
2021/10/11 06:33:24;;;;;;;49.93;30.17;;;;;;;11.29;100.00;101537.72;4971360;28;20202;-72
2021/10/11 06:35:53;;;;;;;49.97;29.47;;;;;;;11.30;100.00;101533.94;4960427;28;20218;-71
2021/10/11 06:38:21;;;;;;;49.53;29.37;;;;;;;11.27;100.00;101539.88;4941030;28;20194;-72
2021/10/11 06:40:51;;;;;;;57.13;31.30;;;;;;;11.26;100.00;101538.25;4956417;28;20221;-71
2021/10/11 06:43:17;;;;;;;52.87;31.23;;;;;;;11.44;100.00;101546.06;4973217;28;20206;-72
2021/10/11 06:45:43;;;;;;;55.53;30.90;;;;;;;11.45;100.00;101555.88;4983017;28;20225;-71
2021/10/11 06:48:09;;;;;;;55.23;30.43;;;;;;;11.48;100.00;101558.06;4991405;28;20194;-72
2021/10/11 06:50:34;;;;;;;51.80;31.47;;;;;;;11.47;100.00;101555.63;4957767;28;20221;-72
2021/10/11 06:53:05;;;;;;;46.10;29.77;;;;;;;11.51;100.00;101562.19;4939874;28;20218;-71
2021/10/11 06:55:35;;;;;;;52.00;29.83;;;;;;;11.52;100.00;101564.66;4955044;28;20224;-71
2021/10/11 06:58:03;;;;;;;47.87;28.53;;;;;;;11.66;100.00;101572.16;4958601;28;20281;-71
2021/10/11 07:00:31;;;;;;;49.27;29.03;;;;;;;11.67;100.00;101567.53;4990742;28;20193;-71
2021/10/11 07:02:56;;;;;;;50.73;28.27;;;;;;;11.69;100.00;101570.81;4959231;28;20209;-71
2021/10/11 07:05:27;;;;;;;49.60;28.27;;;;;;;11.62;100.00;101575.66;4943967;28;20224;-72
2021/10/11 07:07:53;;;;;;;43.80;25.73;;;;;;;11.86;100.00;101566.09;4964271;28;20190;-72
2021/10/11 07:10:18;;;;;;;44.87;28.17;;;;;;;11.99;100.00;101572.72;4960596;28;20213;-72
2021/10/11 07:12:46;;;;;;;50.80;27.33;;;;;;;11.95;100.00;101568.88;4990082;28;20267;-71
2021/10/11 07:15:12;;;;;;;45.83;25.87;;;;;;;11.94;100.00;101575.44;4977199;28;20198;-74
2021/10/11 07:17:37;;;;;;;43.57;27.57;;;;;;;11.74;100.00;101568.13;4943739;28;20683;-73
2021/10/11 07:20:04;;;;;;;47.10;26.57;;;;;;;11.79;100.00;101582.63;4959774;28;20190;-73
2021/10/11 07:22:32;;;;;;;44.27;25.40;;;;;;;11.78;100.00;101574.72;4979664;28;20225;-72
2021/10/11 07:24:58;;;;;;;45.43;25.23;;;;;;;11.87;100.00;101582.16;4977952;28;20256;-71
2021/10/11 07:27:24;;;;;;;44.73;24.57;;;;;;;11.87;100.00;101584.03;5002261;28;20308;-71
2021/10/11 07:29:52;;;;;;;47.30;25.47;;;;;;;11.95;100.00;101587.94;4962490;28;20620;-72
2021/10/11 07:32:17;;;;;;;43.43;23.07;;;;;;;11.87;100.00;101589.50;4949561;28;20238;-72
2021/10/11 07:34:43;;;;;;;39.93;21.67;;;;;;;11.94;100.00;101591.78;4943616;28;20338;-72
2021/10/11 07:37:09;;;;;;;38.40;21.47;;;;;;;11.88;100.00;101594.69;4961503;28;20233;-71
2021/10/11 07:39:36;;;;;;;38.30;21.13;;;;;;;11.95;100.00;101596.13;4974967;28;20183;-71
2021/10/11 07:42:02;;;;;;;34.43;20.33;;;;;;;11.96;100.00;101596.97;4979458;28;20717;-71
2021/10/11 07:44:30;;;;;;;39.13;20.70;;;;;;;12.03;100.00;101587.50;4973601;28;20810;-71
2021/10/11 07:46:57;;;;;;;40.10;20.83;;;;;;;12.13;100.00;101601.19;4987942;28;20221;-72
2021/10/11 07:49:23;;;;;;;37.37;19.73;;;;;;;12.26;100.00;101603.47;4994453;28;20678;-70
2021/10/11 07:51:51;;;;;;;35.67;18.83;;;;;;;12.53;100.00;101601.53;4958394;28;20226;-72
2021/10/11 07:54:18;;;;;;;33.87;18.13;;;;;;;12.42;100.00;101605.25;4958121;28;20300;-71
2021/10/11 07:56:49;;;;;;;32.60;17.73;;;;;;;12.53;100.00;101604.25;4974633;28;20726;-72
2021/10/11 07:59:18;;;;;;;35.80;18.17;;;;;;;12.66;100.00;101598.34;4977892;28;20192;-71
2021/10/11 08:01:43;;;;;;;29.57;15.47;;;;;;;12.60;100.00;101607.53;4960955;28;20244;-71
2021/10/11 08:04:11;;;;;;;28.57;16.00;;;;;;;12.44;100.00;101603.09;4958224;28;20214;-72
2021/10/11 08:06:37;;;;;;;32.37;16.37;;;;;;;12.39;100.00;101605.78;4930189;28;20223;-71
2021/10/11 08:09:04;;;;;;;28.87;16.17;;;;;;;12.81;100.00;101593.81;4992407;28;20193;-72
2021/10/11 08:11:30;;;;;;;25.67;14.40;;;;;;;12.63;100.00;101607.84;4944431;28;20221;-71
2021/10/11 08:13:59;;;;;;;25.23;13.90;;;;;;;12.86;100.00;101591.16;4961969;28;20210;-72
2021/10/11 08:16:27;;;;;;;27.80;13.80;;;;;;;12.91;100.00;101602.06;4961051;28;20694;-71
2021/10/11 08:18:53;;;;;;;24.57;13.57;;;;;;;13.14;100.00;101595.09;4961350;28;20191;-71
2021/10/11 08:21:20;;;;;;;24.10;12.87;;;;;;;13.17;100.00;101596.47;4992990;28;20577;-73
2021/10/11 08:23:52;;;;;;;25.50;12.70;;;;;;;13.06;100.00;101602.13;4963447;28;20730;-72
2021/10/11 08:26:18;;;;;;;17.37;11.30;;;;;;;12.98;100.00;101608.09;4972935;28;20222;-72
2021/10/11 08:28:44;;;;;;;17.30;9.80;;;;;;;13.04;100.00;101599.69;4988016;28;20271;-71
2021/10/11 08:31:11;;;;;;;19.67;9.60;;;;;;;13.03;100.00;101592.59;4960434;28;20316;-70
2021/10/11 08:33:40;;;;;;;18.90;10.50;;;;;;;13.04;100.00;101604.31;4931820;28;20223;-71
2021/10/11 08:36:05;;;;;;;19.50;9.00;;;;;;;13.40;100.00;101601.47;4925492;28;20264;-71
2021/10/11 08:38:32;;;;;;;16.43;8.43;;;;;;;13.51;100.00;101601.25;4942027;28;20205;-74
2021/10/11 08:41:02;;;;;;;15.67;8.90;;;;;;;13.45;100.00;101607.78;4957031;28;20759;-71
2021/10/11 08:43:27;;;;;;;13.07;7.73;;;;;;;13.59;100.00;101608.94;4964363;28;20230;-72
2021/10/11 08:45:55;;;;;;;16.17;7.00;;;;;;;13.75;100.00;101597.75;4967322;28;20230;-71
2021/10/11 08:48:30;;;;;;;13.10;7.27;;;;;;;13.98;100.00;101598.06;4977049;28;20328;-72
2021/10/11 08:50:56;;;;;;;14.83;6.80;;;;;;;14.00;100.00;101601.34;4993394;28;20229;-71
2021/10/11 08:53:24;;;;;;;13.20;6.20;;;;;;;13.92;100.00;101603.81;4969805;28;20260;-72
2021/10/11 08:55:49;;;;;;;13.70;5.77;;;;;;;13.92;100.00;101603.81;4956212;28;20244;-72
2021/10/11 08:58:15;;;;;;;14.03;6.23;;;;;;;14.09;100.00;101604.41;4962314;28;20236;-72
2021/10/11 09:00:43;;;;;;;11.47;4.90;;;;;;;14.07;100.00;101601.94;4975964;28;20581;-72
2021/10/11 09:03:11;;;;;;;13.63;4.93;;;;;;;14.03;100.00;101605.50;4953498;28;20282;-73
2021/10/11 09:05:41;;;;;;;9.87;4.33;;;;;;;14.20;100.00;101601.41;4948643;28;20655;-74
2021/10/11 09:08:10;;;;;;;10.37;4.50;;;;;;;14.35;100.00;101598.66;4976524;28;20193;-72
2021/10/11 09:10:48;;;;;;;10.17;4.60;;;;;;;14.56;100.00;101595.66;4976845;28;20232;-71
2021/10/11 09:13:14;;;;;;;9.73;4.27;;;;;;;14.39;100.00;101595.09;4942219;28;20236;-71
2021/10/11 09:15:39;;;;;;;5.95;3.10;;;;;;;14.64;100.00;101586.88;4962721;28;20707;-72
2021/10/11 09:18:07;;;;;;;8.40;3.40;;;;;;;14.76;100.00;101584.66;4975870;28;20197;-72
2021/10/11 09:20:39;;;;;;;9.53;4.03;;;;;;;14.70;100.00;101585.78;4960542;28;20225;-73
2021/10/11 09:23:05;;;;;;;10.40;3.50;;;;;;;14.76;100.00;101577.31;4974792;28;20205;-72
2021/10/11 09:25:35;;;;;;;9.65;2.85;;;;;;;14.93;100.00;101590.66;4990875;28;20227;-72
2021/10/11 09:28:06;;;;;;;9.60;3.10;;;;;;;14.92;100.00;101589.81;4960201;28;20181;-72
2021/10/11 09:30:34;;;;;;;9.68;2.80;;;;;;;14.89;100.00;101595.88;4940328;28;20222;-71
2021/10/11 09:33:10;;;;;;;10.23;2.80;;;;;;;14.83;100.00;101590.66;4972556;28;20237;-72
2021/10/11 09:35:35;;;;;;;7.88;2.63;;;;;;;14.86;100.00;101593.69;4957462;28;20216;-71
2021/10/11 09:38:16;;;;;;;9.65;2.80;;;;;;;14.69;100.00;101598.63;4972172;28;20578;-72
2021/10/11 09:40:42;;;;;;;7.88;2.47;;;;;;;14.96;100.00;101592.81;4955968;28;20229;-72
2021/10/11 09:43:17;;;;;;;6.90;2.37;;;;;;;15.14;100.00;101585.66;4956151;28;20202;-71
2021/10/11 09:45:42;;;;;;;8.70;1.98;;;;;;;15.29;100.00;101588.38;4966443;28;20222;-72
2021/10/11 09:48:08;;;;;;;6.93;2.28;;;;;;;15.21;100.00;101586.19;4953625;28;20575;-71
2021/10/11 09:50:36;;;;;;;7.00;2.00;;;;;;;15.39;100.00;101591.06;4988977;28;20228;-72
2021/10/11 09:53:09;;;;;;;8.95;2.25;;;;;;;15.52;100.00;101582.22;4958044;28;20699;-72
2021/10/11 09:55:41;;;;;;;7.05;2.10;;;;;;;15.31;100.00;101583.44;4956395;28;20248;-73
2021/10/11 09:58:12;;;;;;;9.18;2.35;;;;;;;15.30;100.00;101579.06;4992094;28;20248;-72
2021/10/11 10:00:40;;;;;;;8.60;2.42;;;;;;;15.15;100.00;101576.38;4942794;28;20226;-74
2021/10/11 10:03:13;;;;;;;6.53;2.03;;;;;;;15.29;100.00;101579.31;4956024;28;20221;-72
2021/10/11 10:05:41;;;;;;;7.53;2.30;;;;;;;15.02;100.00;101574.19;4974998;28;20218;-72
2021/10/11 10:08:09;;;;;;;4.97;1.80;;;;;;;14.86;100.00;101580.00;4955439;28;20182;-72
2021/10/11 10:10:37;;;;;;;6.68;1.75;;;;;;;15.17;100.00;101579.66;4953338;28;20224;-72
2021/10/11 10:13:18;;;;;;;4.45;1.52;;;;;;;15.12;100.00;101578.81;4934133;28;20358;-72
2021/10/11 10:15:44;;;;;;;7.75;1.50;;;;;;;14.96;100.00;101579.16;4945911;28;20222;-74
2021/10/11 10:18:14;;;;;;;4.95;1.27;;;;;;;15.33;100.00;101581.25;4952443;28;20680;-72
2021/10/11 10:20:59;;;;;;;7.00;2.00;;;;;;;15.36;100.00;101580.66;4979380;28;20780;-72
2021/10/11 10:23:30;;;;;;;4.33;1.23;;;;;;;15.63;100.00;101576.41;4953811;28;20313;-73
2021/10/11 10:26:01;;;;;;;8.18;1.50;;;;;;;16.19;100.00;101573.03;4970132;28;20218;-72
2021/10/11 10:28:50;;;;;;;5.45;1.20;;;;;;;16.19;100.00;101581.28;4959282;28;20597;-72
2021/10/11 10:31:32;;;;;;;6.00;1.45;;;;;;;16.36;100.00;101571.50;4941231;28;20230;-72
2021/10/11 10:33:58;;;;;;;7.00;1.40;;;;;;;16.21;100.00;101570.84;4951954;28;20222;-72
2021/10/11 10:36:27;;;;;;;6.13;1.45;;;;;;;15.84;100.00;101578.75;4967709;28;20225;-72
2021/10/11 10:39:08;;;;;;;6.68;1.30;;;;;;;15.75;100.00;101568.69;4940710;28;20710;-71
2021/10/11 10:41:34;;;;;;;8.35;1.80;;;;;;;15.91;100.00;101576.50;4974524;28;20225;-72
2021/10/11 10:44:20;;;;;;;5.65;1.83;;;;;;;15.84;100.00;101570.53;4990022;28;20276;-73
2021/10/11 10:46:52;;;;;;;6.57;1.30;;;;;;;15.71;100.00;101572.25;4973433;28;20240;-71
2021/10/11 10:49:30;;;;;;;6.43;1.73;;;;;;;15.67;100.00;101571.19;4990688;28;20185;-72
2021/10/11 10:51:55;;;;;;;6.75;1.55;;;;;;;15.84;100.00;101580.66;4951589;28;20238;-71
2021/10/11 10:54:33;;;;;;;5.57;1.20;;;;;;;15.59;100.00;101577.28;4970715;28;20214;-73
2021/10/11 10:57:07;;;;;;;4.28;1.13;;;;;;;15.58;100.00;101570.13;4935837;29;20242;-72
2021/10/11 10:59:32;;;;;;;6.65;1.45;;;;;;;15.94;100.00;101572.38;4936487;29;20191;-72
2021/10/11 11:02:07;;;;;;;5.53;1.10;;;;;;;16.01;100.00;101573.69;4973077;28;20227;-71
2021/10/11 11:04:33;;;;;;;5.85;1.60;;;;;;;15.98;100.00;101573.44;4981658;28;20182;-72
2021/10/11 11:07:08;;;;;;;4.70;1.30;;;;;;;16.21;100.00;101568.91;4970286;28;20592;-71
2021/10/11 11:09:43;;;;;;;5.65;1.38;;;;;;;16.36;100.00;101566.03;4940124;28;20214;-72
2021/10/11 11:12:09;;;;;;;7.15;1.50;;;;;;;16.18;100.00;101552.19;4989227;28;20249;-71
2021/10/11 11:14:35;;;;;;;4.55;1.20;;;;;;;16.00;100.00;101563.00;4985330;28;20198;-71